Time;durP1;ratioP1;P1;durP2;ratioP2;P2;SDS_P1;SDS_P2;PMS_P1;PMS_P2;Temp;Humidity;BMP_temperature;BMP_pressure;BME280_temperature;BME280_humidity;BME280_pressure;Samples;Min_cycle;Max_cycle;Signal;HPM_P1;HPM_P2
2021/07/03 00:02:03;;;;;;;17.63;14.70;;;13.50;99.90;;;;;;4923538;29;20480;-58
2021/07/03 00:04:30;;;;;;;16.80;15.07;;;13.50;99.90;;;;;;4916454;29;20541;-58
2021/07/03 00:06:59;;;;;;;18.70;15.93;;;13.40;99.90;;;;;;4922745;29;20475;-53
2021/07/03 00:09:25;;;;;;;16.00;14.33;;;13.40;99.90;;;;;;4917095;29;20475;-58
2021/07/03 00:11:52;;;;;;;17.57;15.90;;;13.40;99.90;;;;;;4923862;29;20477;-58
2021/07/03 00:14:23;;;;;;;16.93;15.13;;;13.40;99.90;;;;;;4922652;29;20790;-58
2021/07/03 00:16:51;;;;;;;20.67;16.30;;;13.40;99.90;;;;;;4914718;29;20533;-57
2021/07/03 00:19:18;;;;;;;16.57;14.53;;;13.30;99.90;;;;;;4921334;29;20485;-58
2021/07/03 00:21:45;;;;;;;17.43;15.77;;;13.30;99.90;;;;;;4920280;29;20476;-58
2021/07/03 00:24:16;;;;;;;19.83;15.07;;;13.20;99.90;;;;;;4922900;29;20472;-51
2021/07/03 00:26:44;;;;;;;17.20;15.33;;;13.20;99.90;;;;;;4923186;29;20504;-56
2021/07/03 00:29:11;;;;;;;18.53;15.10;;;13.20;99.90;;;;;;4919048;29;20545;-52
2021/07/03 00:31:41;;;;;;;15.73;14.13;;;13.20;99.90;;;;;;4921233;29;20476;-56
2021/07/03 00:34:10;;;;;;;16.10;14.47;;;13.10;99.90;;;;;;4922649;29;20475;-55
2021/07/03 00:36:37;;;;;;;15.93;14.30;;;13.00;99.90;;;;;;4922970;29;20500;-52
2021/07/03 00:39:06;;;;;;;15.60;14.00;;;13.00;99.90;;;;;;4922398;29;20576;-57
2021/07/03 00:41:35;;;;;;;14.90;13.47;;;12.90;99.90;;;;;;4920824;29;20472;-54
2021/07/03 00:44:02;;;;;;;16.47;14.77;;;12.90;99.90;;;;;;4923113;29;20464;-56
2021/07/03 00:46:29;;;;;;;17.20;15.30;;;12.90;99.90;;;;;;4921671;29;20503;-57
2021/07/03 00:48:56;;;;;;;16.83;14.23;;;12.90;99.90;;;;;;4922335;29;20472;-57
2021/07/03 00:51:23;;;;;;;17.87;13.90;;;12.90;99.90;;;;;;4922501;29;20492;-56
2021/07/03 01:30:46;;;;;;;14.37;12.97;;;12.40;99.90;;;;;;5029919;23;20453;-57
2021/07/03 01:33:14;;;;;;;15.60;14.00;;;12.40;99.90;;;;;;4921782;29;20477;-60
2021/07/03 01:35:41;;;;;;;15.43;13.70;;;12.40;99.90;;;;;;4922572;29;20469;-55
2021/07/03 01:38:20;;;;;;;14.73;13.23;;;12.40;99.90;;;;;;4922383;29;20480;-51
2021/07/03 01:40:48;;;;;;;17.73;15.00;;;12.30;99.90;;;;;;4921646;29;20502;-55
2021/07/03 01:43:20;;;;;;;15.60;14.10;;;12.30;99.90;;;;;;4922349;29;20559;-54
2021/07/03 01:45:49;;;;;;;16.93;13.20;;;12.30;99.90;;;;;;4915079;29;20500;-53
2021/07/03 01:48:27;;;;;;;15.27;13.60;;;12.30;99.90;;;;;;4916049;29;20480;-56
2021/07/03 01:50:55;;;;;;;14.07;12.77;;;12.30;99.90;;;;;;4921623;29;20490;-57
2021/07/03 01:53:23;;;;;;;14.43;13.00;;;12.30;99.90;;;;;;4922056;29;20468;-50
2021/07/03 01:55:52;;;;;;;15.17;13.60;;;12.30;99.90;;;;;;4921707;29;20568;-55
2021/07/03 01:58:21;;;;;;;16.33;14.63;;;12.20;99.90;;;;;;4921839;29;20456;-54
2021/07/03 02:00:52;;;;;;;13.80;12.40;;;12.20;99.90;;;;;;4920353;29;20484;-55
2021/07/03 02:03:20;;;;;;;18.30;14.97;;;12.20;99.90;;;;;;4916702;29;20476;-56
2021/07/03 02:08:27;;;;;;;16.20;14.50;;;12.10;99.90;;;;;;5079226;28;20562;-56
2021/07/03 02:10:54;;;;;;;16.00;14.33;;;12.10;99.90;;;;;;5058611;28;20515;-55
2021/07/03 02:13:21;;;;;;;16.93;14.30;;;12.10;99.90;;;;;;5062014;28;20462;-55
2021/07/03 02:15:48;;;;;;;15.30;13.80;;;12.10;99.90;;;;;;5054162;28;20477;-55
2021/07/03 02:18:15;;;;;;;14.60;13.20;;;12.10;99.90;;;;;;5054536;28;20517;-53
2021/07/03 02:20:48;;;;;;;15.40;13.77;;;12.00;99.90;;;;;;5054261;28;20528;-57
2021/07/03 02:23:15;;;;;;;15.70;14.20;;;12.00;99.90;;;;;;5055807;28;20975;-57
2021/07/03 02:25:49;;;;;;;15.20;13.33;;;12.00;99.90;;;;;;5054192;28;20470;-57
2021/07/03 02:28:16;;;;;;;17.33;13.73;;;11.90;99.90;;;;;;5056172;28;20876;-57
2021/07/03 02:30:44;;;;;;;14.77;13.30;;;11.90;99.90;;;;;;5073594;28;20901;-57
2021/07/03 02:33:12;;;;;;;15.70;13.80;;;11.90;99.90;;;;;;5073939;28;20469;-57
2021/07/03 02:35:40;;;;;;;15.60;14.00;;;11.80;99.90;;;;;;5073156;28;20502;-57
2021/07/03 02:38:07;;;;;;;15.53;14.00;;;11.80;99.90;;;;;;5074337;28;20470;-57
2021/07/03 02:40:34;;;;;;;16.03;14.43;;;11.80;99.90;;;;;;5063291;28;20474;-54
2021/07/03 02:43:03;;;;;;;21.23;15.87;;;11.80;99.90;;;;;;5054321;28;20470;-53
2021/07/03 02:45:30;;;;;;;15.70;14.10;;;11.80;99.90;;;;;;5053794;28;20524;-58
2021/07/03 03:24:27;;;;;;;17.03;13.93;;;11.60;99.90;;;;;;3221540;23;20496;-55
2021/07/03 03:26:54;;;;;;;15.10;13.63;;;11.70;99.90;;;;;;5020672;28;20499;-58
2021/07/03 03:29:21;;;;;;;17.60;15.97;;;11.70;99.90;;;;;;5030952;28;20823;-60
2021/07/03 03:31:48;;;;;;;16.17;14.40;;;11.60;99.90;;;;;;5038855;28;20463;-59
2021/07/03 03:34:15;;;;;;;15.67;14.10;;;11.60;99.90;;;;;;5039278;28;20790;-59
2021/07/03 03:36:42;;;;;;;15.73;14.23;;;11.60;99.90;;;;;;5039089;28;20471;-60
2021/07/03 03:39:09;;;;;;;14.87;13.37;;;11.50;99.90;;;;;;5033639;28;20885;-60
2021/07/03 03:41:38;;;;;;;16.40;13.97;;;11.60;99.90;;;;;;5020072;28;20550;-57
2021/07/03 03:44:06;;;;;;;17.00;15.30;;;11.60;99.90;;;;;;5020030;28;20467;-59
2021/07/03 03:46:33;;;;;;;16.63;14.90;;;11.60;99.90;;;;;;5020309;28;20468;-57
2021/07/03 04:27:25;;;;;;;17.27;13.13;;;12.50;99.90;;;;;;4403629;22;20492;-58
2021/07/03 04:29:53;;;;;;;14.73;13.13;;;12.60;99.90;;;;;;5010621;28;20542;-56
2021/07/03 04:32:20;;;;;;;14.93;13.53;;;12.60;99.90;;;;;;4999269;28;20464;-60
2021/07/03 04:34:52;;;;;;;16.83;14.50;;;12.70;99.90;;;;;;4998834;28;20515;-60
2021/07/03 04:37:19;;;;;;;15.57;13.90;;;12.70;99.90;;;;;;4999240;28;20473;-60
2021/07/03 04:39:46;;;;;;;18.33;15.73;;;12.80;99.90;;;;;;5000254;28;20473;-60
2021/07/03 04:42:13;;;;;;;17.47;15.77;;;12.90;99.90;;;;;;4999794;28;20479;-60
2021/07/03 04:44:42;;;;;;;15.47;13.20;;;12.90;99.90;;;;;;4998939;28;20472;-60
2021/07/03 04:47:09;;;;;;;17.07;15.33;;;13.00;99.90;;;;;;4998961;28;20500;-60
2021/07/03 04:49:36;;;;;;;15.00;13.60;;;13.00;99.90;;;;;;4999034;28;20469;-60
2021/07/03 04:52:07;;;;;;;16.00;14.37;;;13.10;99.90;;;;;;4998867;28;20468;-58
2021/07/03 04:54:34;;;;;;;17.80;16.00;;;13.20;99.90;;;;;;4999493;28;20768;-59
2021/07/03 04:57:11;;;;;;;17.23;15.43;;;13.20;99.90;;;;;;4998453;28;20758;-60
2021/07/03 04:59:41;;;;;;;16.40;14.80;;;13.30;99.90;;;;;;5008341;28;20872;-60
2021/07/03 05:02:09;;;;;;;19.30;16.33;;;13.30;8.50;;;;;;5017504;28;20539;-60
2021/07/03 05:04:37;;;;;;;17.93;15.87;;;13.40;1.00;;;;;;5005343;28;20477;-60
2021/07/03 05:07:07;;;;;;;19.07;17.20;;;13.50;1.00;;;;;;5011388;28;20496;-60
2021/07/03 05:09:34;;;;;;;18.63;16.50;;;13.70;1.00;;;;;;5008184;28;20870;-60
2021/07/03 05:12:01;;;;;;;17.53;15.73;;;13.80;1.00;;;;;;4998645;28;20477;-60
2021/07/03 05:14:28;;;;;;;20.30;18.27;;;13.90;1.00;;;;;;4999616;28;20465;-60
2021/07/03 05:16:57;;;;;;;20.20;18.07;;;14.00;99.90;;;;;;4998459;28;20469;-60
2021/07/03 05:19:24;;;;;;;19.07;17.17;;;14.10;99.90;;;;;;4998591;28;20886;-60
2021/07/03 05:21:51;;;;;;;18.50;16.70;;;14.10;99.90;;;;;;5003646;28;20439;-60
2021/07/03 05:24:18;;;;;;;18.13;16.43;;;14.20;99.90;;;;;;4998976;28;20491;-60
2021/07/03 05:26:45;;;;;;;17.40;15.63;;;14.40;36.40;;;;;;4998340;28;20842;-60
2021/07/03 05:29:12;;;;;;;20.53;18.47;;;14.40;1.00;;;;;;4998366;28;20926;-59
2021/07/03 05:31:39;;;;;;;19.17;17.23;;;14.60;99.90;;;;;;5002960;28;20467;-57
2021/07/03 05:34:10;;;;;;;18.63;16.90;;;14.80;99.90;;;;;;5017665;28;20811;-59
2021/07/03 05:36:37;;;;;;;19.30;17.30;;;15.10;1.00;;;;;;5017092;28;20464;-59
2021/07/03 05:39:04;;;;;;;18.10;16.30;;;15.30;99.90;;;;;;5010935;28;20468;-55
2021/07/03 05:41:34;;;;;;;18.53;16.37;;;15.30;99.90;;;;;;4998216;28;20973;-58
2021/07/03 05:44:01;;;;;;;19.00;17.00;;;15.30;99.90;;;;;;4998453;28;20499;-58
2021/07/03 05:46:28;;;;;;;16.63;14.93;;;15.40;99.90;;;;;;4997871;28;20523;-59
2021/07/03 05:48:55;;;;;;;18.60;16.20;;;15.50;1.00;;;;;;5016764;28;20510;-54
2021/07/03 05:51:26;;;;;;;16.33;14.70;;;15.70;49.10;;;;;;5016494;28;20555;-56
2021/07/03 05:53:54;;;;;;;16.80;15.20;;;15.90;99.90;;;;;;4998402;28;20467;-58
2021/07/03 05:56:21;;;;;;;17.20;15.60;;;16.10;1.00;;;;;;5016501;28;20774;-58
2021/07/03 05:58:48;;;;;;;18.90;16.90;;;16.30;99.90;;;;;;5016526;28;20500;-57
2021/07/03 06:01:15;;;;;;;18.50;16.57;;;16.40;1.00;;;;;;5016611;28;20475;-55
2021/07/03 06:03:45;;;;;;;18.60;16.53;;;16.60;1.00;;;;;;5008715;28;20482;-59
2021/07/03 06:06:12;;;;;;;18.10;16.30;;;16.80;99.90;;;;;;5004488;28;20487;-56
2021/07/03 06:08:44;;;;;;;18.43;15.63;;;16.90;99.90;;;;;;5001165;28;20492;-52
2021/07/03 06:11:11;;;;;;;15.87;14.47;;;17.10;1.00;;;;;;4997702;28;20468;-58
2021/07/03 06:13:38;;;;;;;16.23;14.73;;;17.30;99.90;;;;;;4999877;28;20783;-54
2021/07/03 06:16:06;;;;;;;15.77;14.27;;;17.60;1.00;;;;;;5004958;28;20471;-57
2021/07/03 06:18:33;;;;;;;17.23;15.50;;;17.90;99.90;;;;;;5016397;28;20468;-51
2021/07/03 06:21:00;;;;;;;19.00;17.30;;;18.10;99.90;;;;;;5016514;28;20526;-57
2021/07/03 06:23:29;;;;;;;16.13;14.63;;;18.40;99.90;;;;;;5003077;28;20893;-55
2021/07/03 06:26:00;;;;;;;15.20;13.90;;;18.60;30.40;;;;;;4997390;28;20551;-58
2021/07/03 06:28:32;;;;;;;15.10;13.77;;;18.90;20.00;;;;;;4997556;28;20779;-55
2021/07/03 06:31:03;;;;;;;14.60;13.30;;;19.20;1.00;;;;;;4997527;28;20469;-57
2021/07/03 06:33:32;;;;;;;17.10;14.30;;;19.50;1.00;;;;;;5016267;28;20831;-53
2021/07/03 06:36:00;;;;;;;15.50;14.10;;;19.80;1.00;;;;;;5016240;28;20467;-56
2021/07/03 06:38:27;;;;;;;15.00;13.53;;;20.00;1.00;;;;;;5013462;28;20465;-56
2021/07/03 06:40:54;;;;;;;14.50;13.13;;;20.30;1.00;;;;;;4997402;28;20480;-54
2021/07/03 06:43:23;;;;;;;14.00;12.60;;;20.60;1.00;;;;;;4997826;28;20476;-57
2021/07/03 06:45:50;;;;;;;13.27;11.97;;;20.70;1.00;;;;;;4997809;28;20477;-57
2021/07/03 06:48:22;;;;;;;14.40;13.10;;;20.80;1.00;;;;;;5000242;28;20506;-51
2021/07/03 06:50:49;;;;;;;14.47;13.07;;;21.20;1.00;;;;;;5016202;28;20563;-52
2021/07/03 06:53:16;;;;;;;13.23;12.10;;;21.50;1.00;;;;;;5016521;28;20467;-53
2021/07/03 06:55:43;;;;;;;13.00;11.90;;;21.70;1.00;;;;;;5020174;28;20518;-55
2021/07/03 06:58:13;;;;;;;12.30;11.30;;;22.10;1.00;;;;;;5017119;28;20775;-55
2021/07/03 07:00:41;;;;;;;14.27;12.90;;;22.00;1.00;;;;;;5020026;28;20459;-53
2021/07/03 07:03:10;;;;;;;14.60;13.30;;;22.40;1.00;;;;;;5012778;28;20994;-54
2021/07/03 07:05:37;;;;;;;13.87;12.50;;;22.40;1.00;;;;;;5011128;28;20924;-53
2021/07/03 07:08:05;;;;;;;14.00;12.77;;;22.30;1.00;;;;;;5017598;28;20499;-53
2021/07/03 07:10:33;;;;;;;14.20;12.80;;;22.50;1.00;;;;;;5017282;28;20478;-52
2021/07/03 07:13:06;;;;;;;14.23;12.90;;;22.80;1.00;;;;;;5015455;28;20461;-49
2021/07/03 07:15:33;;;;;;;14.03;12.73;;;22.90;1.00;;;;;;5000105;28;20560;-55
2021/07/03 07:18:05;;;;;;;13.17;11.97;;;22.90;1.00;;;;;;5007396;28;20558;-54
2021/07/03 07:20:32;;;;;;;13.90;12.50;;;22.70;1.00;;;;;;5019584;28;20467;-49
2021/07/03 07:23:02;;;;;;;19.73;13.10;;;23.00;1.00;;;;;;5004731;28;20492;-50
2021/07/03 07:25:31;;;;;;;14.70;11.00;;;23.50;1.00;;;;;;5006770;28;20463;-53
2021/07/03 07:27:58;;;;;;;14.20;12.90;;;23.90;1.00;;;;;;5019298;28;20515;-55
2021/07/03 07:30:25;;;;;;;13.47;12.17;;;24.20;1.00;;;;;;5018950;28;20472;-54
2021/07/03 07:32:54;;;;;;;13.50;12.30;;;24.30;1.00;;;;;;5019111;28;20468;-55
2021/07/03 07:35:26;;;;;;;13.23;12.03;;;24.50;1.00;;;;;;5019031;28;20893;-53
2021/07/03 07:37:53;;;;;;;12.40;11.10;;;24.80;1.00;;;;;;5019507;28;20471;-55
2021/07/03 07:40:20;;;;;;;13.70;12.50;;;25.00;1.00;;;;;;5005084;28;20499;-55
2021/07/03 07:42:48;;;;;;;13.53;12.40;;;25.10;99.90;;;;;;5000320;28;20589;-55
2021/07/03 07:45:15;;;;;;;12.47;11.47;;;25.20;99.90;;;;;;4999826;28;20480;-51
2021/07/03 07:47:42;;;;;;;13.20;12.07;;;25.30;99.90;;;;;;5000401;28;20469;-51
2021/07/03 07:50:12;;;;;;;13.53;12.33;;;25.30;99.90;;;;;;4999760;28;20476;-49
2021/07/03 08:29:59;;;;;;;10.50;9.50;;;27.10;99.90;;;;;;3983938;22;20501;-54
2021/07/03 08:32:26;;;;;;;10.10;9.20;;;27.50;99.90;;;;;;4980962;28;20472;-46
2021/07/03 08:34:53;;;;;;;9.07;8.37;;;27.70;99.90;;;;;;4998710;28;20465;-50
2021/07/03 08:37:20;;;;;;;9.43;8.67;;;27.80;99.90;;;;;;4998143;28;20476;-48
2021/07/03 08:39:47;;;;;;;10.43;9.53;;;27.70;99.90;;;;;;4989313;28;20505;-45
2021/07/03 09:26:44;;;;;;;8.00;7.30;;;29.30;99.90;;;;;;5732278;22;20809;-51
2021/07/03 09:29:11;;;;;;;8.63;7.93;;;29.60;99.90;;;;;;4995676;28;20496;-50
2021/07/03 09:31:43;;;;;;;8.23;7.63;;;29.80;99.90;;;;;;5008254;28;20907;-49
2021/07/03 09:34:15;;;;;;;8.03;7.33;;;30.20;99.90;;;;;;5016850;28;20530;-47
2021/07/03 09:36:48;;;;;;;8.17;7.47;;;30.20;99.90;;;;;;5016763;28;20506;-51
2021/07/03 09:39:22;;;;;;;9.10;8.30;;;29.50;99.90;;;;;;5014596;28;20465;-47
2021/07/03 09:41:53;;;;;;;8.10;7.50;;;29.40;99.90;;;;;;4998062;28;20463;-57
2021/07/03 09:44:20;;;;;;;7.83;7.13;;;29.50;99.90;;;;;;4998366;28;20465;-52
2021/07/03 09:46:54;;;;;;;7.43;6.90;;;29.50;99.90;;;;;;4997383;28;20461;-53
2021/07/03 09:49:25;;;;;;;6.93;6.50;;;29.40;99.90;;;;;;4997678;28;20481;-50
2021/07/03 09:51:53;;;;;;;8.17;7.57;;;29.60;99.90;;;;;;4997568;28;20475;-47
2021/07/03 09:54:26;;;;;;;7.10;6.50;;;29.70;99.90;;;;;;4998157;28;20882;-53
2021/07/03 09:56:59;;;;;;;7.47;6.87;;;30.20;99.90;;;;;;4997932;28;20527;-53
2021/07/03 09:59:28;;;;;;;7.60;7.00;;;30.80;99.90;;;;;;5000152;28;20507;-51
2021/07/03 10:01:55;;;;;;;7.67;7.07;;;30.60;99.90;;;;;;5016533;28;20543;-51
2021/07/03 10:04:22;;;;;;;8.10;7.50;;;30.90;99.90;;;;;;5016657;28;20468;-49
2021/07/03 10:06:52;;;;;;;7.10;6.57;;;31.00;99.90;;;;;;5004886;28;20479;-53
2021/07/03 10:09:25;;;;;;;7.53;6.90;;;31.20;99.90;;;;;;5005190;28;20773;-57
2021/07/03 10:11:57;;;;;;;6.93;6.43;;;31.20;99.90;;;;;;5002786;28;20525;-55
2021/07/03 10:14:28;;;;;;;7.33;6.63;;;31.10;99.90;;;;;;5015564;28;20478;-56
2021/07/03 10:17:02;;;;;;;7.47;6.87;;;30.90;99.90;;;;;;4997128;28;20460;-54
2021/07/03 10:19:33;;;;;;;6.90;6.40;;;31.00;99.90;;;;;;5010536;28;20468;-49
2021/07/03 10:22:12;;;;;;;7.23;6.70;;;30.90;99.90;;;;;;4997367;28;20468;-49
2021/07/03 10:24:44;;;;;;;7.27;6.77;;;30.50;99.90;;;;;;5002165;28;20467;-50
2021/07/03 10:27:21;;;;;;;7.90;7.30;;;29.90;99.90;;;;;;4997446;28;20502;-48
2021/07/03 10:29:49;;;;;;;7.60;7.00;;;29.70;99.90;;;;;;5015499;28;20502;-53
2021/07/03 10:32:21;;;;;;;7.00;6.40;;;29.50;99.90;;;;;;5019501;28;20477;-47
2021/07/03 10:34:49;;;;;;;6.70;6.13;;;30.00;99.90;;;;;;5019924;28;20493;-52
2021/07/03 11:14:20;;;;;;;5.97;5.43;;;32.30;99.90;;;;;;4571755;23;20558;-55
2021/07/03 11:16:51;;;;;;;5.83;5.43;;;31.90;99.90;;;;;;5008712;28;20463;-54
2021/07/03 11:19:23;;;;;;;5.47;4.97;;;32.60;99.90;;;;;;5003333;28;20460;-55
2021/07/03 11:21:51;;;;;;;5.93;5.53;;;32.70;99.90;;;;;;5000658;28;20492;-55
2021/07/03 11:24:19;;;;;;;5.20;4.70;;;33.60;99.90;;;;;;5001011;28;20507;-53
2021/07/03 11:26:47;;;;;;;6.20;5.80;;;33.70;99.90;;;;;;5008508;28;20534;-55
2021/07/03 11:29:24;;;;;;;6.60;6.20;;;33.70;99.90;;;;;;5009176;28;20494;-54
2021/07/03 11:32:03;;;;;;;6.93;6.43;;;33.80;99.90;;;;;;5017698;28;20770;-49
2021/07/03 11:34:30;;;;;;;8.10;7.00;;;33.30;99.90;;;;;;5018593;28;20923;-55
2021/07/03 11:36:57;;;;;;;6.73;6.23;;;32.80;99.90;;;;;;5018551;28;20467;-53
2021/07/03 11:39:24;;;;;;;6.50;6.00;;;32.30;99.90;;;;;;4999453;28;20460;-53
2021/07/03 12:19:27;;;;;;;5.43;5.10;;;28.80;99.90;;;;;;4274914;22;20504;-57
2021/07/03 12:22:06;;;;;;;5.80;5.40;;;28.50;99.90;;;;;;5020414;28;20648;-50
2021/07/03 12:24:33;;;;;;;6.60;6.10;;;28.10;99.90;;;;;;5022265;28;20464;-52
2021/07/03 12:27:00;;;;;;;6.30;5.90;;;27.60;99.90;;;;;;5019087;28;20479;-45
2021/07/03 12:29:35;;;;;;;6.53;6.07;;;28.90;99.90;;;;;;5018911;28;20761;-50
2021/07/03 12:32:11;;;;;;;5.90;5.60;;;30.10;99.90;;;;;;5037097;28;20474;-53
2021/07/03 12:34:42;;;;;;;5.53;5.23;;;30.80;99.90;;;;;;5036623;28;20473;-47
2021/07/03 12:37:12;;;;;;;5.53;5.13;;;31.40;99.90;;;;;;5036875;28;20458;-49
2021/07/03 12:39:40;;;;;;;6.53;5.97;;;30.70;99.90;;;;;;5017179;28;20464;-48
2021/07/03 12:42:16;;;;;;;5.90;5.50;;;30.20;99.90;;;;;;5030706;28;20806;-51
2021/07/03 12:44:45;;;;;;;6.80;6.30;;;30.40;99.90;;;;;;5017901;28;20467;-52
2021/07/03 12:47:17;;;;;;;6.93;6.47;;;30.40;99.90;;;;;;5022364;28;20471;-56
2021/07/03 12:49:50;;;;;;;6.40;5.90;;;29.90;99.90;;;;;;5018893;28;20495;-52
2021/07/03 12:52:17;;;;;;;5.50;5.20;;;30.10;99.90;;;;;;5021022;28;20466;-53
2021/07/03 12:54:57;;;;;;;6.17;5.77;;;29.40;99.90;;;;;;5037568;28;20471;-46
2021/07/03 12:57:24;;;;;;;6.07;5.57;;;29.90;99.90;;;;;;5037771;28;20462;-48
2021/07/03 12:59:52;;;;;;;7.67;7.17;;;29.90;99.90;;;;;;5035761;28;20977;-49
2021/07/03 13:02:19;;;;;;;6.73;6.27;;;30.00;99.90;;;;;;5037538;28;20470;-51
2021/07/03 13:04:48;;;;;;;6.87;6.37;;;30.00;99.90;;;;;;5030046;28;20536;-49
2021/07/03 13:07:16;;;;;;;7.23;6.73;;;29.90;99.90;;;;;;5029896;28;20569;-45
2021/07/03 13:09:45;;;;;;;7.57;6.87;;;30.80;99.90;;;;;;5024255;28;20514;-50
2021/07/03 13:12:13;;;;;;;7.17;6.67;;;30.00;99.90;;;;;;5024317;28;20506;-51
2021/07/03 13:14:40;;;;;;;6.43;6.03;;;29.50;99.90;;;;;;5023321;28;20464;-48
2021/07/03 13:17:10;;;;;;;7.17;6.77;;;28.70;99.90;;;;;;5020103;28;20474;-55
2021/07/03 13:19:37;;;;;;;6.17;5.77;;;28.50;99.90;;;;;;5017436;28;20955;-55
2021/07/03 13:22:07;;;;;;;7.00;6.50;;;28.50;99.90;;;;;;5020225;28;20583;-55
2021/07/03 13:24:34;;;;;;;6.30;5.80;;;29.30;99.90;;;;;;5033826;28;20531;-54
2021/07/03 13:27:01;;;;;;;5.67;5.27;;;29.20;99.90;;;;;;5036615;28;20463;-54
2021/07/03 13:29:32;;;;;;;6.20;5.80;;;29.40;99.90;;;;;;5034773;28;20882;-52
2021/07/03 13:31:58;;;;;;;6.10;5.60;;;29.70;99.90;;;;;;5037453;28;20459;-51
2021/07/03 13:34:25;;;;;;;7.10;6.50;;;28.90;99.90;;;;;;5036951;28;20887;-51
2021/07/03 13:36:53;;;;;;;6.93;6.43;;;29.60;99.90;;;;;;5020405;28;20453;-47
2021/07/03 13:39:23;;;;;;;7.87;7.17;;;29.90;99.90;;;;;;5022974;28;20467;-58
2021/07/03 13:41:58;;;;;;;6.73;6.23;;;30.60;99.90;;;;;;5018123;28;20474;-56
2021/07/03 13:44:28;;;;;;;6.60;6.20;;;30.10;99.90;;;;;;5017801;28;20467;-51
2021/07/03 13:46:55;;;;;;;7.03;6.50;;;29.70;99.90;;;;;;5023187;28;20824;-51
2021/07/03 13:49:22;;;;;;;6.23;5.83;;;29.30;99.90;;;;;;5024256;28;20495;-52
2021/07/03 13:51:49;;;;;;;7.73;7.03;;;29.40;99.90;;;;;;5017859;28;20474;-54
2021/07/03 13:54:16;;;;;;;8.47;7.83;;;29.60;99.90;;;;;;5018041;28;20537;-52
2021/07/03 13:56:44;;;;;;;7.80;7.30;;;29.80;99.90;;;;;;5017175;28;20472;-51
2021/07/03 13:59:17;;;;;;;10.67;9.77;;;29.50;99.90;;;;;;5028068;28;20884;-48
2021/07/03 14:01:44;;;;;;;7.97;7.37;;;30.40;99.90;;;;;;5035912;28;20509;-48
2021/07/03 14:04:11;;;;;;;6.67;6.17;;;31.00;99.90;;;;;;5028939;28;20533;-50
2021/07/03 14:06:38;;;;;;;6.17;5.73;;;31.10;99.90;;;;;;5025965;28;20468;-48
2021/07/03 14:09:05;;;;;;;6.80;6.40;;;30.90;99.90;;;;;;5022615;28;20502;-52
2021/07/03 14:11:35;;;;;;;6.37;5.97;;;31.90;99.90;;;;;;5019605;28;20482;-55
2021/07/03 14:14:06;;;;;;;6.20;5.80;;;31.40;99.90;;;;;;5022435;28;20471;-55
2021/07/03 14:16:33;;;;;;;7.13;6.63;;;30.80;99.90;;;;;;5017422;28;20806;-55
2021/07/03 14:19:02;;;;;;;7.67;7.17;;;30.10;99.90;;;;;;5018504;28;20924;-55
2021/07/03 14:21:30;;;;;;;6.70;6.23;;;29.00;99.90;;;;;;5031949;28;20558;-54
2021/07/03 15:02:20;;;;;;;7.07;6.47;;;27.30;99.90;;;;;;5390126;23;21552;-55
2021/07/03 15:04:47;;;;;;;7.80;7.10;;;27.40;99.90;;;;;;4976830;28;20490;-54
2021/07/03 15:07:15;;;;;;;7.40;6.83;;;27.90;99.90;;;;;;4990233;28;20473;-50
2021/07/03 15:09:42;;;;;;;8.00;7.40;;;27.70;99.90;;;;;;4979742;28;20501;-49
2021/07/03 15:12:10;;;;;;;7.03;6.53;;;27.20;99.90;;;;;;4977749;28;20485;-47
2021/07/03 15:14:37;;;;;;;7.27;6.63;;;26.70;99.90;;;;;;4981683;28;20485;-51
2021/07/03 15:17:04;;;;;;;7.70;7.00;;;26.70;99.90;;;;;;4985739;28;20536;-47
2021/07/03 15:19:33;;;;;;;7.37;6.87;;;26.80;99.90;;;;;;4981673;28;20536;-47
2021/07/03 15:22:00;;;;;;;7.33;6.63;;;27.10;99.90;;;;;;4984996;28;20473;-52
2021/07/03 15:24:27;;;;;;;9.73;6.90;;;26.90;99.90;;;;;;4987303;28;20469;-50
2021/07/03 15:26:54;;;;;;;9.07;8.37;;;26.90;99.90;;;;;;4980495;28;20899;-51
2021/07/03 15:29:21;;;;;;;7.70;7.00;;;26.80;99.90;;;;;;4991478;28;20501;-49
2021/07/03 15:31:51;;;;;;;8.10;7.50;;;26.80;99.90;;;;;;4998684;28;20804;-47
2021/07/03 15:34:18;;;;;;;9.10;8.33;;;27.30;99.90;;;;;;4999149;28;20512;-51
2021/07/03 15:36:47;;;;;;;7.50;6.80;;;27.30;99.90;;;;;;4998566;28;20469;-55
2021/07/03 15:39:19;;;;;;;8.43;7.83;;;27.40;99.90;;;;;;4987951;28;20469;-55
2021/07/03 15:41:48;;;;;;;8.50;7.80;;;26.80;99.90;;;;;;4984072;28;20473;-51
2021/07/03 15:44:16;;;;;;;8.00;7.37;;;26.40;99.90;;;;;;4984474;28;20476;-55
2021/07/03 15:46:48;;;;;;;7.60;7.00;;;26.50;99.90;;;;;;4988974;28;20541;-53
2021/07/03 15:49:15;;;;;;;9.27;8.30;;;26.10;99.90;;;;;;4981807;28;20472;-52
2021/07/03 15:51:42;;;;;;;8.33;7.67;;;26.30;99.90;;;;;;4980763;28;20470;-49
2021/07/03 15:54:12;;;;;;;7.80;7.20;;;26.30;99.90;;;;;;4987380;28;20481;-45
2021/07/03 15:56:41;;;;;;;8.40;7.80;;;26.30;99.90;;;;;;4985208;28;20532;-47
2021/07/03 15:59:08;;;;;;;8.90;8.10;;;26.10;99.90;;;;;;4989288;28;20470;-45
2021/07/03 16:01:35;;;;;;;9.27;8.47;;;26.10;99.90;;;;;;4995472;28;20531;-45
2021/07/03 16:04:03;;;;;;;8.70;7.90;;;26.10;99.90;;;;;;4976987;28;21251;-50
2021/07/03 16:06:30;;;;;;;9.93;8.77;;;26.10;99.90;;;;;;4993838;28;20527;-45
2021/07/03 16:08:57;;;;;;;10.63;9.70;;;26.00;99.90;;;;;;4985962;28;20924;-48
2021/07/03 16:11:26;;;;;;;10.93;10.03;;;26.00;99.90;;;;;;4979559;28;20503;-51
2021/07/03 16:13:53;;;;;;;10.63;9.83;;;25.90;99.90;;;;;;4985003;28;20531;-48
2021/07/03 16:16:20;;;;;;;10.43;9.53;;;25.70;99.90;;;;;;4978271;28;20981;-51
2021/07/03 16:18:47;;;;;;;10.57;9.67;;;25.60;99.90;;;;;;4979792;28;20477;-49
2021/07/03 16:21:17;;;;;;;9.93;9.03;;;25.40;99.90;;;;;;4979781;28;20838;-48
2021/07/03 16:23:45;;;;;;;9.20;8.40;;;25.50;99.90;;;;;;4979342;28;20517;-46
2021/07/03 16:26:12;;;;;;;9.50;8.70;;;25.50;99.90;;;;;;4981432;28;20513;-48
2021/07/03 16:28:41;;;;;;;9.03;8.33;;;25.40;99.90;;;;;;4985558;28;20826;-47
2021/07/03 16:31:08;;;;;;;8.47;7.77;;;25.20;99.90;;;;;;4996273;28;20945;-51
2021/07/03 16:33:35;;;;;;;8.30;7.47;;;25.00;99.90;;;;;;4981854;28;20470;-54
2021/07/03 16:36:03;;;;;;;8.30;7.60;;;24.90;99.90;;;;;;4979715;28;20470;-49
2021/07/03 16:38:39;;;;;;;7.80;7.20;;;24.90;99.90;;;;;;4979551;28;20473;-47
2021/07/03 16:41:07;;;;;;;7.90;7.30;;;25.10;99.90;;;;;;4986078;28;20456;-49
2021/07/03 16:43:36;;;;;;;7.90;7.20;;;25.10;99.90;;;;;;4986748;28;20461;-48
2021/07/03 16:46:05;;;;;;;8.07;7.47;;;24.90;99.90;;;;;;4979909;28;20794;-47
2021/07/03 16:48:33;;;;;;;8.37;7.67;;;24.70;99.90;;;;;;4986949;28;20465;-48
2021/07/03 16:51:02;;;;;;;8.27;7.60;;;24.60;99.90;;;;;;4993191;28;20492;-45
2021/07/03 16:53:29;;;;;;;9.43;8.53;;;24.40;99.90;;;;;;4979654;28;20537;-54
2021/07/03 16:56:08;;;;;;;9.80;8.90;;;24.20;99.90;;;;;;4979322;28;20476;-54
2021/07/03 17:33:40;;;;;;;11.47;10.30;;;22.30;1.00;;;;;;5412111;23;20458;-61
2021/07/03 18:10:35;;;;;;;17.20;15.57;;;21.70;1.00;;;;;;5349664;23;21136;-62
2021/07/03 18:13:07;;;;;;;12.23;11.10;;;21.70;1.00;;;;;;4979137;28;20505;-59
2021/07/03 18:15:36;;;;;;;12.40;11.30;;;21.70;1.00;;;;;;4983952;28;20838;-60
2021/07/03 19:32:25;;;;;;;17.47;15.87;;;20.30;99.90;;;;;;3372498;23;20493;-64
2021/07/03 19:34:53;;;;;;;16.50;15.00;;;20.30;50.90;;;;;;4981096;28;20473;-64
2021/07/03 20:14:24;;;;;;;17.93;16.13;;;19.50;99.90;;;;;;4398831;23;20493;-63
2021/07/03 20:16:53;;;;;;;18.93;16.97;;;19.50;99.90;;;;;;4980993;28;20470;-64
2021/07/03 20:56:14;;;;;;;16.07;14.47;;;19.20;99.90;;;;;;3105285;23;20511;-64
2021/07/03 20:58:47;;;;;;;16.23;14.67;;;19.20;1.00;;;;;;4999536;28;20472;-64
2021/07/03 21:01:18;;;;;;;16.47;15.03;;;19.10;1.00;;;;;;5016888;28;20472;-65
2021/07/03 21:03:47;;;;;;;17.20;15.67;;;19.10;1.00;;;;;;5008843;28;20476;-64
2021/07/03 21:06:15;;;;;;;16.77;15.07;;;19.10;99.90;;;;;;5004739;28;20484;-64
2021/07/03 21:09:14;;;;;;;17.93;16.23;;;19.20;1.00;;;;;;5012305;28;20548;-64
2021/07/03 21:15:13;;;;;;;16.70;15.20;;;19.20;62.50;;;;;;4928358;28;21024;-64
2021/07/03 21:17:41;;;;;;;16.03;14.53;;;19.00;1.00;;;;;;4998338;28;20472;-64
2021/07/03 21:20:10;;;;;;;15.80;14.47;;;18.90;99.90;;;;;;4998877;28;20465;-64
2021/07/03 21:22:37;;;;;;;16.50;15.00;;;18.90;99.90;;;;;;4998393;28;20815;-64
2021/07/03 21:25:07;;;;;;;17.93;16.23;;;18.90;99.90;;;;;;4998075;28;20485;-64
2021/07/03 21:27:35;;;;;;;16.90;15.30;;;19.00;1.00;;;;;;4998594;28;20469;-64
2021/07/03 21:30:05;;;;;;;16.70;15.30;;;19.00;99.90;;;;;;5007559;28;20481;-64
2021/07/03 21:32:33;;;;;;;16.23;14.80;;;19.00;99.90;;;;;;5016970;28;20904;-64
2021/07/03 21:35:00;;;;;;;16.23;14.70;;;19.10;1.00;;;;;;5017033;28;20483;-64
2021/07/03 21:37:31;;;;;;;17.60;16.10;;;19.10;99.90;;;;;;5016952;28;20474;-64